Time;durP1;ratioP1;P1;durP2;ratioP2;P2;SDS_P1;SDS_P2;PMS_P1;PMS_P2;Temp;Humidity;BMP_temperature;BMP_pressure;BME280_temperature;BME280_humidity;BME280_pressure;Samples;Min_cycle;Max_cycle;Signal;HPM_P1;HPM_P2
2023/08/19 00:01:18;;;;;;;11.30;3.15;;;;;;;30.27;30.72;98484.47;5033057;28;20480;-46
2023/08/19 00:03:44;;;;;;;9.80;3.45;;;;;;;30.49;30.65;98482.50;5033012;28;20029;-46
2023/08/19 00:06:30;;;;;;;12.05;2.97;;;;;;;30.54;29.91;98484.19;5032943;28;20775;-46
2023/08/19 00:08:55;;;;;;;6.63;2.35;;;;;;;30.39;29.98;98475.63;5033039;28;20032;-46
2023/08/19 00:11:21;;;;;;;21.63;4.53;;;;;;;30.30;30.48;98482.22;5032799;28;20017;-46
2023/08/19 00:13:47;;;;;;;19.48;4.38;;;;;;;30.39;30.79;98478.31;5031200;28;20519;-46
2023/08/19 00:16:12;;;;;;;9.55;2.95;;;;;;;30.61;30.01;98487.16;5032987;28;20506;-46
2023/08/19 00:18:38;;;;;;;10.43;2.92;;;;;;;30.39;30.36;98486.44;5032723;28;20441;-46
2023/08/19 00:21:04;;;;;;;7.80;2.75;;;;;;;30.44;30.30;98488.13;5015281;28;20506;-46
2023/08/19 00:23:30;;;;;;;7.10;2.58;;;;;;;30.42;30.46;98488.47;5031346;28;20129;-46
2023/08/19 00:25:55;;;;;;;17.33;3.75;;;;;;;30.30;30.49;98482.22;5031296;28;20510;-46
2023/08/19 00:28:21;;;;;;;9.32;2.92;;;;;;;29.88;31.07;98493.94;5031251;28;20497;-46
2023/08/19 00:30:47;;;;;;;6.43;2.83;;;;;;;29.80;30.79;98495.63;5031185;28;20033;-46
2023/08/19 00:33:12;;;;;;;10.20;3.13;;;;;;;29.63;31.18;98493.03;5032347;28;20057;-46
2023/08/19 00:35:39;;;;;;;9.57;3.08;;;;;;;29.59;31.65;98497.53;5032648;28;20025;-45
2023/08/19 00:38:04;;;;;;;14.77;4.43;;;;;;;29.56;31.84;98490.06;5032368;28;20022;-46
2023/08/19 00:40:30;;;;;;;5.40;2.20;;;;;;;29.83;31.39;98486.06;5031009;28;20082;-46
2023/08/19 00:42:56;;;;;;;6.60;2.40;;;;;;;29.68;31.33;98493.66;5032380;28;20097;-46
2023/08/19 00:45:21;;;;;;;20.40;4.63;;;;;;;29.63;31.78;98493.03;5030874;28;20026;-46
2023/08/19 00:47:47;;;;;;;33.78;5.18;;;;;;;29.66;31.36;98493.19;5032199;28;20104;-46
2023/08/19 00:50:15;;;;;;;28.52;5.22;;;;;;;29.95;31.80;98491.50;5032067;28;20597;-46
2023/08/19 00:52:41;;;;;;;25.38;4.50;;;;;;;30.32;31.10;98499.75;5032334;28;20075;-45
2023/08/19 00:55:07;;;;;;;15.50;3.42;;;;;;;30.49;29.91;98496.06;5030720;28;20022;-46
2023/08/19 00:57:35;;;;;;;21.35;3.80;;;;;;;30.61;30.76;98489.84;5030745;28;20032;-46
2023/08/19 01:00:02;;;;;;;16.98;3.67;;;;;;;31.03;30.07;98490.44;5030716;28;20503;-46
2023/08/19 01:02:28;;;;;;;22.38;3.50;;;;;;;31.55;29.24;98488.06;5032003;28;20036;-46
2023/08/19 01:04:54;;;;;;;11.68;2.92;;;;;;;31.70;28.23;98492.75;5031912;28;20112;-46
2023/08/19 01:07:31;;;;;;;10.25;2.83;;;;;;;31.06;28.08;98503.28;5030588;28;20036;-46
2023/08/19 01:10:12;;;;;;;46.45;5.47;;;;;;;30.36;29.83;98499.88;5031953;28;20120;-46
2023/08/19 01:12:57;;;;;;;8.43;2.65;;;;;;;30.01;30.06;98503.69;5031869;28;20111;-46
2023/08/19 01:15:29;;;;;;;68.43;7.95;;;;;;;29.72;30.71;98499.22;5030326;28;20045;-46
2023/08/19 01:17:56;;;;;;;11.60;2.92;;;;;;;29.80;30.55;98511.06;5030563;28;20033;-46
2023/08/19 01:20:24;;;;;;;22.60;5.40;;;;;;;30.11;30.99;98502.50;5031724;28;20021;-46
2023/08/19 01:23:32;;;;;;;4.22;2.13;;;;;;;30.13;29.62;98510.28;5030447;28;20454;-46
2023/08/19 01:25:59;;;;;;;9.45;2.35;;;;;;;29.55;30.49;98510.13;4970740;28;20035;-46
2023/08/19 01:28:25;;;;;;;23.67;4.97;;;;;;;29.02;31.49;98506.97;4954562;28;20500;-46
2023/08/19 01:30:50;;;;;;;20.15;4.28;;;;;;;29.10;32.03;98511.53;4970691;28;20146;-46
2023/08/19 01:33:17;;;;;;;9.73;2.78;;;;;;;29.42;30.95;98514.69;4970670;28;20117;-46
2023/08/19 01:35:49;;;;;;;12.43;2.58;;;;;;;29.33;31.31;98512.03;4970693;28;20037;-46
2023/08/19 01:38:40;;;;;;;10.93;2.50;;;;;;;29.17;31.12;98514.53;4954418;28;20117;-46
2023/08/19 01:41:07;;;;;;;4.95;2.58;;;;;;;29.08;31.56;98521.88;4960445;28;20042;-45
2023/08/19 01:43:33;;;;;;;28.98;6.45;;;;;;;28.75;32.44;98519.03;4970465;28;20557;-45
2023/08/19 01:45:59;;;;;;;9.55;2.75;;;;;;;28.93;32.00;98522.44;4970560;28;20097;-46
2023/08/19 01:48:25;;;;;;;44.65;7.28;;;;;;;28.87;31.81;98521.81;4970636;28;20051;-46
2023/08/19 01:50:51;;;;;;;24.48;4.78;;;;;;;29.00;31.96;98514.63;4970364;28;20073;-46
2023/08/19 01:53:17;;;;;;;7.60;2.60;;;;;;;29.27;31.11;98518.75;4954239;28;20403;-45
2023/08/19 01:55:42;;;;;;;11.27;2.70;;;;;;;29.24;31.16;98519.44;4977710;28;20039;-46
2023/08/19 01:58:08;;;;;;;9.52;2.78;;;;;;;29.15;31.04;98511.38;5030385;28;20017;-46
2023/08/19 02:00:34;;;;;;;16.73;3.70;;;;;;;29.23;31.70;98515.91;5030450;28;20487;-46
2023/08/19 02:03:00;;;;;;;9.50;2.72;;;;;;;29.49;31.40;98514.94;5034276;28;20025;-46
2023/08/19 02:05:26;;;;;;;17.33;3.42;;;;;;;29.72;31.08;98511.94;5035404;28;20029;-46
2023/08/19 02:07:51;;;;;;;12.80;3.47;;;;;;;29.92;30.21;98505.69;5035148;28;20034;-46
2023/08/19 02:10:17;;;;;;;16.05;3.72;;;;;;;30.09;29.84;98517.50;5033778;28;20495;-46
2023/08/19 02:12:43;;;;;;;18.55;3.90;;;;;;;30.01;30.80;98519.16;5033691;28;20049;-46
2023/08/19 02:15:09;;;;;;;33.92;5.15;;;;;;;29.96;29.99;98513.94;5033522;28;20053;-46
2023/08/19 02:17:34;;;;;;;14.43;3.05;;;;;;;29.92;30.09;98521.94;5033730;28;20033;-46
2023/08/19 02:20:00;;;;;;;21.10;3.65;;;;;;;29.68;30.46;98522.63;5033652;28;20029;-46
2023/08/19 02:22:26;;;;;;;14.95;3.88;;;;;;;29.67;30.66;98526.44;5033715;28;20052;-46
2023/08/19 02:24:51;;;;;;;19.45;3.45;;;;;;;29.68;30.38;98523.41;5034804;28;20495;-46
2023/08/19 02:27:17;;;;;;;5.53;2.50;;;;;;;29.25;30.52;98519.09;5035109;28;20087;-46
2023/08/19 02:29:42;;;;;;;22.95;4.68;;;;;;;28.87;31.57;98521.81;5035034;28;20024;-46
2023/08/19 02:32:08;;;;;;;13.68;2.70;;;;;;;28.80;31.72;98522.34;5034634;28;20068;-46
2023/08/19 02:34:34;;;;;;;6.00;2.92;;;;;;;28.56;31.83;98527.53;5034910;28;20037;-46
2023/08/19 02:36:59;;;;;;;9.23;2.58;;;;;;;28.31;32.09;98537.25;5033640;28;20092;-46
2023/08/19 02:39:25;;;;;;;19.27;4.13;;;;;;;27.92;32.94;98536.38;5034560;28;20026;-46
2023/08/19 02:41:51;;;;;;;18.23;3.25;;;;;;;27.99;33.68;98534.78;5033575;28;20037;-45
2023/08/19 02:44:16;;;;;;;7.18;2.30;;;;;;;28.25;32.43;98532.03;5034726;28;20550;-46
2023/08/19 02:46:42;;;;;;;64.13;13.38;;;;;;;28.18;33.12;98539.03;5034381;28;20509;-46
2023/08/19 02:49:08;;;;;;;44.25;8.48;;;;;;;28.32;33.06;98534.22;5034445;28;20072;-46
2023/08/19 02:51:33;;;;;;;4.22;2.38;;;;;;;28.37;32.11;98541.34;5034387;28;20033;-46
2023/08/19 02:53:59;;;;;;;17.05;3.42;;;;;;;27.89;32.65;98538.59;5034283;28;20029;-46
2023/08/19 02:56:25;;;;;;;5.20;2.13;;;;;;;27.86;32.71;98549.19;5034250;28;20033;-46
2023/08/19 02:58:50;;;;;;;17.73;3.17;;;;;;;27.84;33.23;98546.00;5034195;28;20021;-46
2023/08/19 03:01:16;;;;;;;10.48;2.65;;;;;;;27.89;32.77;98537.81;5034429;28;20033;-46
2023/08/19 03:03:44;;;;;;;20.98;3.78;;;;;;;27.96;33.01;98534.63;5034172;28;20522;-45
2023/08/19 03:06:10;;;;;;;7.80;2.53;;;;;;;28.00;32.27;98536.34;5033968;28;20025;-45
2023/08/19 03:08:36;;;;;;;23.00;4.60;;;;;;;27.64;32.35;98536.66;5033060;28;20026;-46
2023/08/19 03:11:03;;;;;;;6.90;2.20;;;;;;;27.49;32.94;98538.72;5033990;28;20029;-45
2023/08/19 03:13:29;;;;;;;5.75;2.17;;;;;;;27.25;32.94;98541.84;5031332;28;20584;-45
2023/08/19 03:15:59;;;;;;;5.90;2.50;;;;;;;26.94;33.04;98533.78;5034013;28;20068;-45
2023/08/19 03:18:26;;;;;;;6.03;2.38;;;;;;;26.62;33.74;98535.75;5033835;28;20395;-45
2023/08/19 03:20:58;;;;;;;8.77;2.63;;;;;;;26.42;34.69;98533.53;5033801;28;20018;-45
2023/08/19 03:23:26;;;;;;;3.30;1.75;;;;;;;26.27;34.28;98537.44;5033823;28;20029;-45
2023/08/19 03:25:52;;;;;;;6.50;1.92;;;;;;;26.11;34.85;98537.00;5033758;28;20514;-45
2023/08/19 03:28:18;;;;;;;9.38;2.70;;;;;;;25.99;35.36;98537.56;5033738;28;20505;-45
2023/08/19 03:30:44;;;;;;;3.30;2.00;;;;;;;25.94;35.05;98548.44;5032372;28;20454;-45
2023/08/19 03:33:10;;;;;;;5.20;1.90;;;;;;;25.81;35.52;98546.56;5033564;28;20060;-46
2023/08/19 03:35:35;;;;;;;4.72;2.03;;;;;;;25.74;35.65;98551.59;5032252;28;20072;-46
2023/08/19 03:38:02;;;;;;;12.55;2.72;;;;;;;25.66;35.86;98556.56;5032211;28;20083;-45
2023/08/19 03:40:28;;;;;;;3.53;1.98;;;;;;;25.62;36.32;98560.97;5033461;28;20030;-45
2023/08/19 03:42:53;;;;;;;5.25;2.88;;;;;;;25.51;36.29;98562.28;5032178;28;20025;-45
2023/08/19 03:45:19;;;;;;;4.82;2.22;;;;;;;25.42;36.40;98559.50;5033376;28;20040;-45
2023/08/19 03:47:45;;;;;;;3.30;1.92;;;;;;;25.38;36.41;98552.34;5032089;28;20064;-45
2023/08/19 03:50:11;;;;;;;6.95;2.70;;;;;;;25.36;36.39;98552.66;5033281;28;20076;-45
2023/08/19 03:52:36;;;;;;;6.85;2.33;;;;;;;25.34;36.55;98562.13;5033145;28;20029;-45
2023/08/19 03:55:02;;;;;;;9.20;2.65;;;;;;;25.26;36.72;98559.03;5032203;28;20083;-45
2023/08/19 03:57:28;;;;;;;6.45;2.38;;;;;;;25.36;36.88;98566.09;5031929;28;20033;-45
2023/08/19 03:59:54;;;;;;;17.75;4.10;;;;;;;25.41;36.83;98559.81;5033151;28;20156;-45
2023/08/19 04:02:19;;;;;;;7.47;2.92;;;;;;;25.83;36.48;98563.19;5031746;28;20036;-45
2023/08/19 04:05:07;;;;;;;13.45;3.50;;;;;;;26.08;36.26;98565.31;5033062;28;20029;-45
2023/08/19 04:07:33;;;;;;;21.35;4.25;;;;;;;26.57;35.27;98562.75;5033064;28;20045;-45
2023/08/19 04:09:58;;;;;;;21.00;4.32;;;;;;;26.68;34.77;98563.31;5031655;28;20021;-45
2023/08/19 04:12:25;;;;;;;35.08;5.95;;;;;;;26.72;35.12;98568.88;5032864;28;20022;-45
2023/08/19 04:14:52;;;;;;;6.60;2.80;;;;;;;26.84;34.01;98567.22;5031443;28;20107;-45
2023/08/19 04:17:18;;;;;;;37.25;11.30;;;;;;;26.66;34.37;98573.59;5031473;28;20021;-45
2023/08/19 04:19:44;;;;;;;14.85;3.95;;;;;;;26.61;34.72;98573.75;5032762;28;20080;-45
2023/08/19 04:22:15;;;;;;;8.70;2.47;;;;;;;26.39;34.65;98574.53;5032698;28;20030;-45
2023/08/19 04:24:40;;;;;;;5.03;2.30;;;;;;;26.20;34.86;98572.03;5031133;28;20399;-45
2023/08/19 04:27:07;;;;;;;5.47;2.28;;;;;;;26.29;35.06;98576.38;5032593;28;20033;-45
2023/08/19 04:29:33;;;;;;;11.82;3.20;;;;;;;26.26;34.63;98581.59;5031289;28;20032;-45
2023/08/19 04:32:02;;;;;;;7.38;2.67;;;;;;;26.06;34.74;98580.19;5032385;28;20033;-46
2023/08/19 04:34:29;;;;;;;10.55;3.53;;;;;;;25.91;35.10;98584.00;5032475;28;20021;-46
2023/08/19 04:36:55;;;;;;;7.75;2.80;;;;;;;25.86;34.95;98587.59;5031057;28;20033;-45
2023/08/19 04:39:22;;;;;;;7.35;2.70;;;;;;;25.83;34.99;98590.06;5031074;28;20029;-45
2023/08/19 04:41:48;;;;;;;12.23;1.98;;;;;;;25.71;35.12;98593.28;5032291;28;20053;-45
2023/08/19 04:44:15;;;;;;;13.60;2.53;;;;;;;25.66;34.90;98596.88;5032217;28;20549;-45
2023/08/19 04:46:40;;;;;;;9.63;2.03;;;;;;;25.65;35.07;98594.50;5032265;28;20033;-45
2023/08/19 04:49:07;;;;;;;14.90;2.75;;;;;;;25.70;34.93;98592.50;5032198;28;20035;-45
2023/08/19 04:51:33;;;;;;;9.13;2.42;;;;;;;25.75;34.71;98588.09;5030908;28;20032;-45
2023/08/19 04:53:59;;;;;;;7.75;2.40;;;;;;;25.70;34.69;98591.72;5032287;28;20025;-45
2023/08/19 04:56:25;;;;;;;4.65;2.25;;;;;;;25.64;35.20;98592.91;5032126;28;20559;-45
2023/08/19 04:58:50;;;;;;;7.95;2.35;;;;;;;25.62;35.11;98595.91;5031058;28;20033;-45
2023/08/19 05:01:17;;;;;;;12.07;2.47;;;;;;;25.60;35.38;98592.72;5032014;28;20510;-45
2023/08/19 05:03:42;;;;;;;11.23;3.15;;;;;;;25.61;35.26;98593.50;5031955;28;20026;-45
2023/08/19 05:06:08;;;;;;;16.67;2.92;;;;;;;25.61;35.40;98596.97;5030782;28;20022;-45
2023/08/19 05:08:34;;;;;;;5.78;2.30;;;;;;;25.74;35.18;98597.28;5031960;28;20037;-45
2023/08/19 05:10:59;;;;;;;4.38;2.40;;;;;;;25.92;34.94;98601.75;5031847;28;20018;-45
2023/08/19 05:13:25;;;;;;;3.67;2.15;;;;;;;26.02;34.40;98604.19;5034427;28;20088;-45
2023/08/19 05:15:50;;;;;;;3.85;1.80;;;;;;;26.15;33.91;98599.84;5033840;28;20033;-45
2023/08/19 05:18:16;;;;;;;4.40;2.00;;;;;;;26.26;34.00;98613.88;5033833;28;20056;-45
2023/08/19 05:20:42;;;;;;;4.90;2.10;;;;;;;26.21;33.76;98612.09;5034096;28;20525;-45
2023/08/19 05:23:08;;;;;;;8.25;2.15;;;;;;;26.09;34.11;98612.63;5051913;28;20475;-45
2023/08/19 05:25:33;;;;;;;5.78;2.22;;;;;;;26.06;34.08;98624.00;5051615;28;20082;-45
2023/08/19 05:27:59;;;;;;;5.63;2.22;;;;;;;26.03;34.10;98627.28;5051619;28;20091;-45
2023/08/19 05:30:25;;;;;;;4.93;2.35;;;;;;;26.00;34.34;98624.44;5051559;28;20021;-45
2023/08/19 05:32:50;;;;;;;10.18;2.50;;;;;;;25.97;34.74;98622.34;5051546;28;20025;-45
2023/08/19 05:35:16;;;;;;;5.78;2.35;;;;;;;25.94;34.69;98629.13;5033566;28;20395;-45
2023/08/19 05:37:42;;;;;;;8.77;2.90;;;;;;;25.93;34.98;98626.72;5036184;28;20514;-45
2023/08/19 05:40:08;;;;;;;5.93;2.50;;;;;;;25.91;35.24;98624.34;5055912;28;20183;-45
2023/08/19 05:42:34;;;;;;;13.75;3.30;;;;;;;26.08;34.96;98635.25;5055808;28;20055;-45
2023/08/19 05:45:00;;;;;;;13.63;3.80;;;;;;;26.17;34.61;98637.22;5037598;28;20029;-45
2023/08/19 05:47:26;;;;;;;4.95;2.55;;;;;;;26.25;34.75;98639.16;5055441;28;20510;-45
2023/08/19 05:49:51;;;;;;;12.15;2.95;;;;;;;26.33;34.73;98633.06;5055415;28;20025;-45
2023/08/19 05:52:17;;;;;;;10.30;3.00;;;;;;;26.48;34.43;98643.47;5037370;28;20094;-46
2023/08/19 05:54:42;;;;;;;6.28;3.83;;;;;;;26.67;34.23;98645.97;5037416;28;20029;-45
2023/08/19 05:57:08;;;;;;;9.65;3.30;;;;;;;27.05;33.97;98642.84;5037626;28;20088;-46
2023/08/19 05:59:34;;;;;;;9.45;2.90;;;;;;;27.43;33.21;98650.47;5055289;28;20146;-46
2023/08/19 06:02:00;;;;;;;53.53;19.98;;;;;;;27.55;32.57;98649.88;5055208;28;20029;-46
2023/08/19 06:04:25;;;;;;;60.38;12.32;;;;;;;27.70;33.25;98641.34;5055168;28;20024;-46
2023/08/19 06:06:51;;;;;;;15.20;4.28;;;;;;;27.93;32.48;98645.84;5055339;28;20037;-46
2023/08/19 06:09:17;;;;;;;12.27;4.03;;;;;;;28.08;32.38;98643.47;5037196;28;20018;-46
2023/08/19 06:12:02;;;;;;;7.57;2.70;;;;;;;28.19;32.36;98656.63;5055015;28;20078;-46
2023/08/19 06:14:27;;;;;;;;;;;;;;;28.36;32.27;98663.97;5034059;28;20046;-46
2023/08/19 06:16:53;;;;;;;18.52;3.38;;;;;;;28.62;32.23;98669.34;5033747;28;19936;-46
2023/08/19 06:19:19;;;;;;;15.80;4.85;;;;;;;28.94;31.73;98673.41;5034983;28;20027;-46
2023/08/19 06:21:44;;;;;;;8.52;2.75;;;;;;;29.22;31.37;98681.16;5034960;28;20514;-46
2023/08/19 06:24:10;;;;;;;15.23;3.08;;;;;;;29.47;31.10;98679.44;5034861;28;20410;-46
2023/08/19 06:26:36;;;;;;;15.85;4.43;;;;;;;29.82;31.16;98679.25;5034861;28;20032;-46
2023/08/19 06:29:02;;;;;;;12.60;4.10;;;;;;;30.15;30.54;98675.88;5034787;28;20099;-46
2023/08/19 06:31:28;;;;;;;13.73;3.50;;;;;;;30.35;30.30;98672.38;5034786;28;20025;-46
2023/08/19 06:33:54;;;;;;;11.02;3.38;;;;;;;30.43;30.06;98668.78;5033586;28;20503;-46
2023/08/19 06:36:25;;;;;;;9.40;2.38;;;;;;;30.62;29.73;98671.00;5034690;28;20025;-46
2023/08/19 06:39:27;;;;;;;9.32;2.72;;;;;;;30.99;29.02;98668.41;5033580;28;20509;-45
2023/08/19 06:42:02;;;;;;;6.03;2.72;;;;;;;31.64;28.20;98671.28;5034839;28;20033;-46
2023/08/19 06:44:30;;;;;;;13.70;4.55;;;;;;;32.48;27.05;98671.75;5033469;28;20029;-46
2023/08/19 06:46:57;;;;;;;5.10;2.50;;;;;;;32.74;26.68;98668.59;5033165;28;20034;-46
2023/08/19 06:49:23;;;;;;;7.20;2.67;;;;;;;33.10;26.51;98683.13;5032956;28;20526;-46
2023/08/19 06:51:49;;;;;;;8.00;2.22;;;;;;;33.99;25.13;98681.72;5034388;28;20082;-46
2023/08/19 06:54:15;;;;;;;7.70;2.38;;;;;;;34.15;24.28;98685.19;5033025;28;20116;-46
2023/08/19 06:57:00;;;;;;;8.50;2.47;;;;;;;34.02;24.37;98684.50;5034304;28;20398;-46
2023/08/19 06:59:36;;;;;;;6.25;2.55;;;;;;;33.70;24.13;98691.97;5034401;28;20040;-46
2023/08/19 07:02:03;;;;;;;10.85;2.78;;;;;;;33.71;24.98;98695.50;5032896;28;20503;-46
2023/08/19 07:04:29;;;;;;;6.00;2.80;;;;;;;33.90;24.24;98694.72;5034231;28;20102;-46
2023/08/19 07:07:01;;;;;;;7.10;2.22;;;;;;;33.18;25.48;98698.47;5034073;28;20380;-46
2023/08/19 07:09:28;;;;;;;7.82;2.47;;;;;;;32.75;26.31;98697.38;5034300;28;20029;-46
2023/08/19 07:11:55;;;;;;;10.88;2.33;;;;;;;33.33;25.52;98700.41;5032744;28;20104;-46
2023/08/19 07:14:21;;;;;;;7.47;2.88;;;;;;;34.02;24.32;98700.06;5044065;28;20105;-46
2023/08/19 07:16:49;;;;;;;11.73;2.90;;;;;;;35.13;23.14;98695.97;5035899;28;20029;-46
2023/08/19 07:19:25;;;;;;;15.23;3.70;;;;;;;36.37;22.03;98701.72;5053852;28;20036;-46
2023/08/19 07:21:53;;;;;;;7.15;2.30;;;;;;;37.63;19.90;98707.59;5035864;28;20513;-47
2023/08/19 07:24:19;;;;;;;6.97;2.50;;;;;;;38.21;19.38;98709.50;5053722;28;20376;-46
2023/08/19 07:26:46;;;;;;;8.90;2.42;;;;;;;38.82;19.10;98706.16;5035748;28;20036;-46
2023/08/19 07:29:12;;;;;;;7.78;2.30;;;;;;;39.16;18.49;98714.88;5053524;28;20082;-46
2023/08/19 07:31:38;;;;;;;9.43;2.60;;;;;;;39.44;18.48;98705.06;5053584;28;20108;-47
2023/08/19 07:34:04;;;;;;;17.77;3.95;;;;;;;39.87;18.17;98705.78;5035586;28;20516;-46
2023/08/19 07:36:29;;;;;;;5.80;2.00;;;;;;;40.09;17.46;98706.50;5053500;28;20024;-46
2023/08/19 07:38:55;;;;;;;6.05;2.53;;;;;;;40.01;17.49;98704.19;5035824;28;20035;-46
2023/08/19 07:41:21;;;;;;;14.95;4.82;;;;;;;39.96;17.89;98708.09;5053410;28;20028;-46
2023/08/19 07:43:48;;;;;;;18.20;3.80;;;;;;;40.57;17.20;98710.63;5035412;28;20025;-47
2023/08/19 07:46:17;;;;;;;35.22;9.35;;;;;;;41.48;16.92;98708.78;5053276;28;20021;-46
2023/08/19 07:48:46;;;;;;;9.00;2.38;;;;;;;42.20;15.01;98700.56;5035328;28;20040;-47
2023/08/19 07:51:12;;;;;;;7.60;2.95;;;;;;;42.60;15.00;98700.81;5053507;28;20029;-47
2023/08/19 07:53:39;;;;;;;8.13;2.53;;;;;;;43.12;15.04;98702.41;5053115;28;20025;-47
2023/08/19 07:56:05;;;;;;;11.18;3.15;;;;;;;43.33;14.36;98704.06;5035220;28;20033;-47
2023/08/19 07:58:32;;;;;;;6.25;2.33;;;;;;;43.41;14.17;98701.94;5035273;28;20040;-47
2023/08/19 08:00:58;;;;;;;6.40;2.42;;;;;;;43.13;14.19;98700.44;5052390;28;20516;-47
2023/08/19 08:03:24;;;;;;;4.32;1.92;;;;;;;43.09;13.65;98709.56;5053022;28;20052;-47
2023/08/19 08:05:49;;;;;;;11.00;5.10;;;;;;;43.42;14.38;98707.03;5034989;28;20029;-46
2023/08/19 08:08:15;;;;;;;4.00;2.22;;;;;;;43.47;13.63;98712.09;5052852;28;20029;-46
2023/08/19 08:10:41;;;;;;;5.35;2.80;;;;;;;42.87;13.95;98709.09;5052801;28;20029;-47
2023/08/19 08:13:07;;;;;;;6.20;2.00;;;;;;;42.57;14.67;98715.44;5034624;28;20565;-47
2023/08/19 08:15:33;;;;;;;14.68;3.58;;;;;;;42.42;13.97;98714.84;5034788;28;20143;-47
2023/08/19 08:17:59;;;;;;;8.48;2.80;;;;;;;41.81;14.62;98718.31;5052716;28;20395;-47
2023/08/19 08:20:24;;;;;;;10.75;2.47;;;;;;;41.15;15.09;98718.50;5052611;28;20017;-47
2023/08/19 08:22:50;;;;;;;7.97;2.58;;;;;;;41.04;15.36;98724.09;5034727;28;20137;-47
2023/08/19 08:25:16;;;;;;;21.92;7.68;;;;;;;40.78;15.76;98714.44;5052551;28;20590;-47
2023/08/19 08:27:41;;;;;;;7.20;3.83;;;;;;;40.78;15.52;98708.94;5052493;28;20025;-47
2023/08/19 08:30:07;;;;;;;12.68;3.95;;;;;;;41.26;15.40;98724.72;5052488;28;20021;-47
2023/08/19 08:32:33;;;;;;;8.93;4.60;;;;;;;41.66;14.92;98722.44;5034394;28;20426;-47
2023/08/19 08:34:59;;;;;;;5.35;2.50;;;;;;;42.07;14.58;98724.34;5034477;28;20025;-46
2023/08/19 08:37:25;;;;;;;10.10;3.70;;;;;;;42.32;14.51;98726.81;5052336;28;20031;-46
2023/08/19 08:39:50;;;;;;;7.18;2.17;;;;;;;42.65;14.76;98729.94;5034435;28;20108;-46
2023/08/19 08:42:17;;;;;;;9.07;6.28;;;;;;;43.24;14.63;98720.34;5034331;28;20025;-48
2023/08/19 08:44:48;;;;;;;7.30;3.40;;;;;;;43.70;14.12;98723.56;5034319;28;20116;-48
2023/08/19 08:47:15;;;;;;;14.20;6.75;;;;;;;43.93;13.59;98723.50;5052226;28;20469;-48
2023/08/19 08:49:45;;;;;;;28.30;5.32;;;;;;;43.99;14.02;98719.03;5052082;28;20035;-49
2023/08/19 08:52:10;;;;;;;9.30;2.40;;;;;;;44.72;13.30;98721.84;5051994;28;20056;-48
2023/08/19 08:54:37;;;;;;;10.77;7.75;;;;;;;45.48;13.01;98717.25;5034491;28;20071;-49
2023/08/19 08:57:03;;;;;;;6.57;2.90;;;;;;;46.03;12.16;98720.94;5052269;28;20071;-48
2023/08/19 08:59:29;;;;;;;10.93;7.65;;;;;;;46.73;12.22;98719.25;5034216;28;20418;-49
2023/08/19 09:01:58;;;;;;;32.47;14.35;;;;;;;47.06;11.78;98721.78;5034074;28;20037;-49
2023/08/19 09:04:26;;;;;;;18.65;8.70;;;;;;;46.97;12.11;98719.69;5051967;28;20029;-49
2023/08/19 09:07:08;;;;;;;9.73;4.43;;;;;;;46.80;11.40;98715.47;5051839;28;20437;-49
2023/08/19 09:09:36;;;;;;;7.83;3.73;;;;;;;47.14;11.68;98720.31;5051984;28;20025;-49
2023/08/19 09:12:08;;;;;;;13.73;10.68;;;;;;;47.34;11.00;98711.72;5050866;28;20025;-49
2023/08/19 09:14:41;;;;;;;11.20;7.03;;;;;;;47.31;10.99;98709.84;5051613;28;20037;-49
2023/08/19 09:17:07;;;;;;;9.13;6.40;;;;;;;46.56;11.40;98715.78;5051766;28;20120;-49
2023/08/19 09:19:32;;;;;;;8.95;5.78;;;;;;;45.83;11.94;98715.53;5051710;28;20107;-48
2023/08/19 09:22:07;;;;;;;15.07;8.95;;;;;;;45.61;12.13;98723.66;5051591;28;20075;-49
2023/08/19 09:24:35;;;;;;;6.60;5.45;;;;;;;45.26;12.30;98712.28;5033833;28;20406;-49
2023/08/19 09:27:01;;;;;;;8.20;3.17;;;;;;;45.96;12.04;98707.25;5051655;28;20120;-49
2023/08/19 09:29:27;;;;;;;8.25;6.97;;;;;;;46.43;11.52;98709.47;5033718;28;20025;-48
2023/08/19 09:31:55;;;;;;;10.70;6.50;;;;;;;46.74;11.49;98706.13;5033677;28;20024;-49
2023/08/19 09:34:21;;;;;;;16.30;10.35;;;;;;;47.43;11.38;98708.22;5051341;28;20112;-49
2023/08/19 09:36:47;;;;;;;30.75;18.73;;;;;;;48.29;10.97;98712.72;5051570;28;20109;-49
2023/08/19 09:39:12;;;;;;;13.70;12.43;;;;;;;48.27;10.63;98710.38;5051414;28;20032;-49
2023/08/19 09:41:38;;;;;;;11.98;5.70;;;;;;;47.02;10.99;98705.22;5051523;28;20112;-49
2023/08/19 09:44:13;;;;;;;9.63;2.55;;;;;;;46.60;11.78;98705.34;5017177;28;20078;-49
2023/08/19 09:46:39;;;;;;;4.38;2.42;;;;;;;47.07;11.53;98717.78;5033890;28;20120;-49
2023/08/19 09:49:04;;;;;;;5.45;1.92;;;;;;;46.79;11.38;98709.16;5051679;28;20044;-49
2023/08/19 09:51:31;;;;;;;6.75;3.28;;;;;;;46.27;11.72;98701.22;5033438;28;20491;-49
2023/08/19 09:54:09;;;;;;;6.30;2.00;;;;;;;46.40;11.43;98707.56;5051329;28;20426;-49
2023/08/19 09:56:35;;;;;;;8.63;2.53;;;;;;;46.38;11.70;98705.22;5051353;28;20025;-49
2023/08/19 09:59:01;;;;;;;6.03;2.00;;;;;;;46.31;11.63;98699.13;5033429;28;20079;-49
2023/08/19 10:01:27;;;;;;;8.00;2.00;;;;;;;46.31;11.66;98693.56;5033378;28;20029;-49
2023/08/19 10:03:53;;;;;;;5.78;1.98;;;;;;;46.06;11.85;98700.63;5051197;28;20035;-49
2023/08/19 10:06:31;;;;;;;7.75;1.90;;;;;;;46.03;11.99;98701.53;5033367;28;20021;-49
2023/08/19 10:09:02;;;;;;;3.10;2.10;;;;;;;46.32;11.55;98695.88;5051338;28;20021;-49
2023/08/19 10:11:31;;;;;;;5.57;2.70;;;;;;;46.58;11.08;98688.34;5051589;28;20032;-49
2023/08/19 10:14:02;;;;;;;9.30;2.40;;;;;;;46.80;11.34;98696.03;5032941;28;20053;-49
2023/08/19 10:16:31;;;;;;;4.55;1.73;;;;;;;46.79;11.05;98689.72;5051193;28;20029;-49
2023/08/19 10:18:59;;;;;;;6.63;1.90;;;;;;;47.26;11.18;98687.41;5051190;28;20445;-49
2023/08/19 10:21:26;;;;;;;4.50;2.90;;;;;;;47.86;11.01;98692.03;5033230;28;20036;-49
2023/08/19 10:23:52;;;;;;;7.45;2.10;;;;;;;48.44;10.67;98687.88;5053695;28;20032;-49
2023/08/19 10:26:18;;;;;;;11.35;3.88;;;;;;;49.02;10.77;98681.56;5054764;28;20033;-49
2023/08/19 10:29:03;;;;;;;8.43;2.00;;;;;;;48.82;9.85;98679.19;5054686;28;20029;-49
2023/08/19 10:31:29;;;;;;;7.20;2.20;;;;;;;48.85;10.55;98685.88;5054739;28;20021;-49
2023/08/19 10:33:56;;;;;;;4.20;1.90;;;;;;;49.06;10.37;98675.84;5036656;28;20335;-49
2023/08/19 10:36:25;;;;;;;11.95;3.75;;;;;;;49.19;10.50;98671.66;5054528;28;20033;-49
2023/08/19 10:38:51;;;;;;;4.88;2.15;;;;;;;48.92;9.98;98677.97;5036665;28;20090;-49
2023/08/19 10:41:27;;;;;;;2.20;1.85;;;;;;;47.51;10.34;98672.59;5054564;28;20021;-50
2023/08/19 10:43:54;;;;;;;19.17;2.38;;;;;;;46.67;11.22;98673.81;5054533;28;20039;-49
2023/08/19 10:46:25;;;;;;;6.13;1.88;;;;;;;46.12;11.49;98665.56;5054478;28;20087;-49
2023/08/19 10:48:51;;;;;;;8.70;2.25;;;;;;;45.54;12.45;98671.16;5054702;28;20379;-49
2023/08/19 10:51:18;;;;;;;8.23;2.22;;;;;;;45.90;12.18;98665.38;5054381;28;20019;-49
2023/08/19 10:54:04;;;;;;;6.45;2.15;;;;;;;45.89;11.38;98668.63;5036566;28;20044;-49
2023/08/19 10:56:30;;;;;;;7.85;2.20;;;;;;;45.98;11.36;98677.06;5054305;28;20498;-49
2023/08/19 10:58:56;;;;;;;8.20;2.00;;;;;;;45.78;11.35;98677.25;5054265;28;20021;-49
2023/08/19 11:01:23;;;;;;;3.75;1.90;;;;;;;45.62;11.87;98672.50;5036415;28;20490;-49
2023/08/19 11:03:49;;;;;;;2.88;2.00;;;;;;;45.40;11.76;98672.31;5054043;28;20052;-49
2023/08/19 11:06:14;;;;;;;8.55;2.08;;;;;;;45.15;12.15;98670.97;5054052;28;20055;-49
2023/08/19 11:08:44;;;;;;;6.50;1.70;;;;;;;45.82;11.83;98670.41;5054049;28;20128;-49
2023/08/19 11:11:19;;;;;;;11.23;9.60;;;;;;;46.91;11.44;98676.22;5053982;28;20477;-49
2023/08/19 11:13:45;;;;;;;10.68;4.68;;;;;;;47.75;11.77;98678.50;5053570;28;20070;-49
2023/08/19 11:16:10;;;;;;;5.10;1.83;;;;;;;48.33;10.96;98668.81;5036224;28;20035;-49
2023/08/19 11:18:42;;;;;;;5.82;2.33;;;;;;;48.75;10.85;98660.00;5053856;28;20109;-49
2023/08/19 11:21:08;;;;;;;12.50;2.45;;;;;;;48.77;10.71;98666.66;5053787;28;20082;-49
2023/08/19 11:23:34;;;;;;;31.25;3.63;;;;;;;48.57;10.17;98669.06;5035801;28;20035;-49
2023/08/19 11:26:00;;;;;;;14.63;4.22;;;;;;;48.23;10.41;98672.78;5036105;28;20117;-49
2023/08/19 11:28:26;;;;;;;4.18;2.10;;;;;;;47.96;10.45;98665.84;5053652;28;20376;-50
2023/08/19 11:30:51;;;;;;;5.85;1.85;;;;;;;48.01;10.22;98674.38;5035757;28;20037;-49